sensor_id;sensor_type;location;lat;lon;timestamp;temperature;humidity
19622;DHT22;9958;33.196;-97.114;2023-07-29T00:01:03;38.50;42.50
19622;DHT22;9958;33.196;-97.114;2023-07-29T00:03:31;38.40;42.60
19622;DHT22;9958;33.196;-97.114;2023-07-29T00:06:00;38.40;42.80
19622;DHT22;9958;33.196;-97.114;2023-07-29T00:08:28;38.30;42.80
19622;DHT22;9958;33.196;-97.114;2023-07-29T00:10:56;38.20;42.90
19622;DHT22;9958;33.196;-97.114;2023-07-29T00:13:25;38.10;43.00
19622;DHT22;9958;33.196;-97.114;2023-07-29T00:15:54;38.00;43.10
19622;DHT22;9958;33.196;-97.114;2023-07-29T00:18:24;38.00;43.50
19622;DHT22;9958;33.196;-97.114;2023-07-29T00:20:53;37.90;43.10
19622;DHT22;9958;33.196;-97.114;2023-07-29T00:23:22;37.80;43.30
19622;DHT22;9958;33.196;-97.114;2023-07-29T00:25:50;37.80;43.50
19622;DHT22;9958;33.196;-97.114;2023-07-29T00:28:19;37.70;43.80
19622;DHT22;9958;33.196;-97.114;2023-07-29T00:30:47;37.60;44.20
19622;DHT22;9958;33.196;-97.114;2023-07-29T00:33:15;37.60;44.40
19622;DHT22;9958;33.196;-97.114;2023-07-29T00:35:45;37.50;44.50
19622;DHT22;9958;33.196;-97.114;2023-07-29T00:38:13;37.40;44.80
19622;DHT22;9958;33.196;-97.114;2023-07-29T00:40:42;37.30;45.30
19622;DHT22;9958;33.196;-97.114;2023-07-29T00:43:10;37.20;45.50
19622;DHT22;9958;33.196;-97.114;2023-07-29T00:45:39;37.20;45.70
19622;DHT22;9958;33.196;-97.114;2023-07-29T00:48:07;37.10;46.00
19622;DHT22;9958;33.196;-97.114;2023-07-29T00:50:35;37.00;46.20
19622;DHT22;9958;33.196;-97.114;2023-07-29T00:53:05;37.00;46.40
19622;DHT22;9958;33.196;-97.114;2023-07-29T00:55:34;36.90;46.70
19622;DHT22;9958;33.196;-97.114;2023-07-29T00:58:03;36.80;46.90
19622;DHT22;9958;33.196;-97.114;2023-07-29T01:00:31;36.70;47.10
19622;DHT22;9958;33.196;-97.114;2023-07-29T01:03:00;36.70;47.40
19622;DHT22;9958;33.196;-97.114;2023-07-29T01:05:35;36.60;47.50
19622;DHT22;9958;33.196;-97.114;2023-07-29T01:08:11;36.50;47.50
19622;DHT22;9958;33.196;-97.114;2023-07-29T01:10:52;36.50;47.60
19622;DHT22;9958;33.196;-97.114;2023-07-29T01:13:27;36.40;47.90
19622;DHT22;9958;33.196;-97.114;2023-07-29T01:16:02;36.40;48.30
19622;DHT22;9958;33.196;-97.114;2023-07-29T01:18:33;36.30;48.40
19622;DHT22;9958;33.196;-97.114;2023-07-29T01:21:04;36.20;48.70
19622;DHT22;9958;33.196;-97.114;2023-07-29T01:23:34;36.10;49.30
19622;DHT22;9958;33.196;-97.114;2023-07-29T01:26:03;36.00;49.80
19622;DHT22;9958;33.196;-97.114;2023-07-29T01:28:32;35.90;50.40
19622;DHT22;9958;33.196;-97.114;2023-07-29T01:31:07;35.80;51.00
19622;DHT22;9958;33.196;-97.114;2023-07-29T01:33:42;35.80;51.30
19622;DHT22;9958;33.196;-97.114;2023-07-29T01:36:18;35.70;51.70
19622;DHT22;9958;33.196;-97.114;2023-07-29T01:38:48;35.60;52.30
19622;DHT22;9958;33.196;-97.114;2023-07-29T01:41:18;35.50;52.80
19622;DHT22;9958;33.196;-97.114;2023-07-29T01:43:47;35.40;53.10
19622;DHT22;9958;33.196;-97.114;2023-07-29T01:46:15;35.30;53.50
19622;DHT22;9958;33.196;-97.114;2023-07-29T01:48:43;35.20;53.80
19622;DHT22;9958;33.196;-97.114;2023-07-29T01:51:12;35.20;53.60
19622;DHT22;9958;33.196;-97.114;2023-07-29T01:53:41;35.10;53.90
19622;DHT22;9958;33.196;-97.114;2023-07-29T01:56:11;34.90;53.90
19622;DHT22;9958;33.196;-97.114;2023-07-29T01:58:39;34.90;54.00
19622;DHT22;9958;33.196;-97.114;2023-07-29T02:01:07;34.80;54.10
19622;DHT22;9958;33.196;-97.114;2023-07-29T02:03:36;34.80;54.20
19622;DHT22;9958;33.196;-97.114;2023-07-29T02:06:04;34.70;54.20
19622;DHT22;9958;33.196;-97.114;2023-07-29T02:08:32;34.70;54.40
19622;DHT22;9958;33.196;-97.114;2023-07-29T02:11:00;34.60;54.60
19622;DHT22;9958;33.196;-97.114;2023-07-29T02:13:30;34.60;54.70
19622;DHT22;9958;33.196;-97.114;2023-07-29T02:15:59;34.50;54.80
19622;DHT22;9958;33.196;-97.114;2023-07-29T02:18:27;34.50;55.00
19622;DHT22;9958;33.196;-97.114;2023-07-29T02:20:55;34.40;55.00
19622;DHT22;9958;33.196;-97.114;2023-07-29T02:23:24;34.40;55.30
19622;DHT22;9958;33.196;-97.114;2023-07-29T02:25:52;34.30;55.70
19622;DHT22;9958;33.196;-97.114;2023-07-29T02:28:21;34.30;55.90
19622;DHT22;9958;33.196;-97.114;2023-07-29T02:31:09;34.20;56.20
19622;DHT22;9958;33.196;-97.114;2023-07-29T02:33:38;34.10;56.30
19622;DHT22;9958;33.196;-97.114;2023-07-29T02:36:06;34.10;56.30
19622;DHT22;9958;33.196;-97.114;2023-07-29T02:38:35;34.10;56.60
19622;DHT22;9958;33.196;-97.114;2023-07-29T02:41:03;34.00;56.70
19622;DHT22;9958;33.196;-97.114;2023-07-29T02:43:31;34.00;56.70
19622;DHT22;9958;33.196;-97.114;2023-07-29T02:46:01;33.90;56.80
19622;DHT22;9958;33.196;-97.114;2023-07-29T02:48:30;33.90;57.10
19622;DHT22;9958;33.196;-97.114;2023-07-29T02:50:58;33.90;57.50
19622;DHT22;9958;33.196;-97.114;2023-07-29T02:53:26;33.80;57.50
19622;DHT22;9958;33.196;-97.114;2023-07-29T02:55:55;33.80;57.90
19622;DHT22;9958;33.196;-97.114;2023-07-29T02:58:23;33.70;58.00
19622;DHT22;9958;33.196;-97.114;2023-07-29T03:00:52;33.60;58.20
19622;DHT22;9958;33.196;-97.114;2023-07-29T03:03:22;33.60;58.20
19622;DHT22;9958;33.196;-97.114;2023-07-29T03:05:58;33.60;58.40
19622;DHT22;9958;33.196;-97.114;2023-07-29T03:08:26;33.50;58.30
19622;DHT22;9958;33.196;-97.114;2023-07-29T03:10:55;33.40;58.30
19622;DHT22;9958;33.196;-97.114;2023-07-29T03:13:24;33.30;58.20
19622;DHT22;9958;33.196;-97.114;2023-07-29T03:15:52;33.30;58.30
19622;DHT22;9958;33.196;-97.114;2023-07-29T03:18:22;33.30;58.60
19622;DHT22;9958;33.196;-97.114;2023-07-29T03:20:50;33.30;58.50
19622;DHT22;9958;33.196;-97.114;2023-07-29T03:23:19;33.20;58.80
19622;DHT22;9958;33.196;-97.114;2023-07-29T03:25:49;33.20;58.80
19622;DHT22;9958;33.196;-97.114;2023-07-29T03:28:17;33.10;58.80
19622;DHT22;9958;33.196;-97.114;2023-07-29T03:30:46;33.10;59.00
19622;DHT22;9958;33.196;-97.114;2023-07-29T03:33:14;33.10;59.20
19622;DHT22;9958;33.196;-97.114;2023-07-29T03:35:44;33.00;59.20
19622;DHT22;9958;33.196;-97.114;2023-07-29T03:38:12;33.00;59.10
19622;DHT22;9958;33.196;-97.114;2023-07-29T03:40:41;32.90;59.20
19622;DHT22;9958;33.196;-97.114;2023-07-29T03:43:10;32.90;59.40
19622;DHT22;9958;33.196;-97.114;2023-07-29T03:45:38;32.90;59.90
19622;DHT22;9958;33.196;-97.114;2023-07-29T03:48:07;32.90;60.70
19622;DHT22;9958;33.196;-97.114;2023-07-29T03:50:36;32.80;59.80
19622;DHT22;9958;33.196;-97.114;2023-07-29T03:53:06;32.80;59.80
19622;DHT22;9958;33.196;-97.114;2023-07-29T03:55:36;32.70;59.80
19622;DHT22;9958;33.196;-97.114;2023-07-29T03:58:04;32.70;60.30
19622;DHT22;9958;33.196;-97.114;2023-07-29T04:00:32;32.60;60.20
19622;DHT22;9958;33.196;-97.114;2023-07-29T04:03:01;32.60;60.30
19622;DHT22;9958;33.196;-97.114;2023-07-29T04:05:29;32.50;60.60
19622;DHT22;9958;33.196;-97.114;2023-07-29T04:07:57;32.50;60.90
19622;DHT22;9958;33.196;-97.114;2023-07-29T04:10:27;32.40;61.00
19622;DHT22;9958;33.196;-97.114;2023-07-29T04:12:58;32.40;61.30
19622;DHT22;9958;33.196;-97.114;2023-07-29T04:15:26;32.30;61.50
19622;DHT22;9958;33.196;-97.114;2023-07-29T04:17:54;32.30;62.00
19622;DHT22;9958;33.196;-97.114;2023-07-29T04:20:23;32.20;62.20
19622;DHT22;9958;33.196;-97.114;2023-07-29T04:22:51;32.20;62.40
19622;DHT22;9958;33.196;-97.114;2023-07-29T04:25:19;32.10;62.50
19622;DHT22;9958;33.196;-97.114;2023-07-29T04:27:49;32.00;62.60
19622;DHT22;9958;33.196;-97.114;2023-07-29T04:30:17;32.00;62.60
19622;DHT22;9958;33.196;-97.114;2023-07-29T04:32:46;31.90;62.90
19622;DHT22;9958;33.196;-97.114;2023-07-29T04:35:14;31.90;63.60
19622;DHT22;9958;33.196;-97.114;2023-07-29T04:37:43;31.80;63.80
19622;DHT22;9958;33.196;-97.114;2023-07-29T04:40:11;31.70;64.10
19622;DHT22;9958;33.196;-97.114;2023-07-29T04:42:40;31.70;64.20
19622;DHT22;9958;33.196;-97.114;2023-07-29T04:45:10;31.60;64.30
19622;DHT22;9958;33.196;-97.114;2023-07-29T04:47:38;31.60;64.60
19622;DHT22;9958;33.196;-97.114;2023-07-29T04:50:08;31.60;64.90
19622;DHT22;9958;33.196;-97.114;2023-07-29T04:52:36;31.60;65.40
19622;DHT22;9958;33.196;-97.114;2023-07-29T04:55:05;31.50;65.20
19622;DHT22;9958;33.196;-97.114;2023-07-29T04:57:33;31.50;65.60
19622;DHT22;9958;33.196;-97.114;2023-07-29T05:00:02;31.40;65.60
19622;DHT22;9958;33.196;-97.114;2023-07-29T05:02:32;31.40;65.70
19622;DHT22;9958;33.196;-97.114;2023-07-29T05:05:00;31.40;66.50
19622;DHT22;9958;33.196;-97.114;2023-07-29T05:07:29;31.40;66.40
19622;DHT22;9958;33.196;-97.114;2023-07-29T05:09:58;31.30;66.20
19622;DHT22;9958;33.196;-97.114;2023-07-29T05:12:26;31.30;66.30
19622;DHT22;9958;33.196;-97.114;2023-07-29T05:14:55;31.30;66.60
19622;DHT22;9958;33.196;-97.114;2023-07-29T05:17:24;31.30;66.80
19622;DHT22;9958;33.196;-97.114;2023-07-29T05:19:53;31.30;66.80
19622;DHT22;9958;33.196;-97.114;2023-07-29T05:22:22;31.20;66.90
19622;DHT22;9958;33.196;-97.114;2023-07-29T05:24:51;31.20;67.50
19622;DHT22;9958;33.196;-97.114;2023-07-29T05:27:19;31.20;67.80
19622;DHT22;9958;33.196;-97.114;2023-07-29T05:29:47;31.10;67.90
19622;DHT22;9958;33.196;-97.114;2023-07-29T05:32:16;31.10;68.30
19622;DHT22;9958;33.196;-97.114;2023-07-29T05:34:44;31.00;68.40
19622;DHT22;9958;33.196;-97.114;2023-07-29T05:37:14;31.00;69.00
19622;DHT22;9958;33.196;-97.114;2023-07-29T05:39:42;31.00;69.10
19622;DHT22;9958;33.196;-97.114;2023-07-29T05:42:10;30.90;69.60
19622;DHT22;9958;33.196;-97.114;2023-07-29T05:44:39;30.90;70.10
19622;DHT22;9958;33.196;-97.114;2023-07-29T05:47:08;30.90;70.60
19622;DHT22;9958;33.196;-97.114;2023-07-29T05:49:36;30.90;71.60
19622;DHT22;9958;33.196;-97.114;2023-07-29T05:52:05;30.90;72.10
19622;DHT22;9958;33.196;-97.114;2023-07-29T05:54:35;30.80;72.50
19622;DHT22;9958;33.196;-97.114;2023-07-29T05:57:04;30.80;73.50
19622;DHT22;9958;33.196;-97.114;2023-07-29T05:59:32;30.80;74.20
19622;DHT22;9958;33.196;-97.114;2023-07-29T06:02:01;30.80;74.70
19622;DHT22;9958;33.196;-97.114;2023-07-29T06:04:29;30.80;74.80
19622;DHT22;9958;33.196;-97.114;2023-07-29T06:06:58;30.80;75.10
19622;DHT22;9958;33.196;-97.114;2023-07-29T06:09:26;30.80;75.00
19622;DHT22;9958;33.196;-97.114;2023-07-29T06:11:56;30.80;75.20
19622;DHT22;9958;33.196;-97.114;2023-07-29T06:14:24;30.80;75.00
19622;DHT22;9958;33.196;-97.114;2023-07-29T06:16:52;30.80;75.30
19622;DHT22;9958;33.196;-97.114;2023-07-29T06:19:21;30.70;75.40
19622;DHT22;9958;33.196;-97.114;2023-07-29T06:21:49;30.70;75.50
19622;DHT22;9958;33.196;-97.114;2023-07-29T06:24:18;30.60;75.70
19622;DHT22;9958;33.196;-97.114;2023-07-29T06:26:46;30.60;75.80
19622;DHT22;9958;33.196;-97.114;2023-07-29T06:29:16;30.60;76.10
19622;DHT22;9958;33.196;-97.114;2023-07-29T06:31:46;30.60;76.30
19622;DHT22;9958;33.196;-97.114;2023-07-29T06:34:15;30.50;76.40
19622;DHT22;9958;33.196;-97.114;2023-07-29T06:36:43;30.50;76.70
19622;DHT22;9958;33.196;-97.114;2023-07-29T06:39:12;30.40;76.60
19622;DHT22;9958;33.196;-97.114;2023-07-29T06:41:40;30.40;76.60
19622;DHT22;9958;33.196;-97.114;2023-07-29T06:44:08;30.30;76.60
19622;DHT22;9958;33.196;-97.114;2023-07-29T06:46:38;30.30;77.10
19622;DHT22;9958;33.196;-97.114;2023-07-29T06:49:09;30.30;77.20
19622;DHT22;9958;33.196;-97.114;2023-07-29T06:51:37;30.20;77.00
19622;DHT22;9958;33.196;-97.114;2023-07-29T06:54:05;30.20;77.00
19622;DHT22;9958;33.196;-97.114;2023-07-29T06:56:34;30.10;78.40
19622;DHT22;9958;33.196;-97.114;2023-07-29T06:59:03;30.10;78.10
19622;DHT22;9958;33.196;-97.114;2023-07-29T07:01:31;30.00;78.30
19622;DHT22;9958;33.196;-97.114;2023-07-29T07:04:01;30.00;78.10
19622;DHT22;9958;33.196;-97.114;2023-07-29T07:06:30;29.90;78.40
19622;DHT22;9958;33.196;-97.114;2023-07-29T07:08:58;29.90;78.70
19622;DHT22;9958;33.196;-97.114;2023-07-29T07:11:28;29.90;79.00
19622;DHT22;9958;33.196;-97.114;2023-07-29T07:13:57;29.80;79.20
19622;DHT22;9958;33.196;-97.114;2023-07-29T07:16:25;29.80;79.60
19622;DHT22;9958;33.196;-97.114;2023-07-29T07:18:56;29.70;79.70
19622;DHT22;9958;33.196;-97.114;2023-07-29T07:21:26;29.70;79.90
19622;DHT22;9958;33.196;-97.114;2023-07-29T07:23:54;29.60;80.00
19622;DHT22;9958;33.196;-97.114;2023-07-29T07:26:22;29.60;80.60
19622;DHT22;9958;33.196;-97.114;2023-07-29T07:28:51;29.50;80.90
19622;DHT22;9958;33.196;-97.114;2023-07-29T07:31:19;29.50;81.20
19622;DHT22;9958;33.196;-97.114;2023-07-29T07:33:47;29.50;82.10
19622;DHT22;9958;33.196;-97.114;2023-07-29T07:36:16;29.40;82.40
19622;DHT22;9958;33.196;-97.114;2023-07-29T07:38:46;29.30;82.70
19622;DHT22;9958;33.196;-97.114;2023-07-29T07:41:14;29.30;83.10
19622;DHT22;9958;33.196;-97.114;2023-07-29T07:43:42;29.30;83.60
19622;DHT22;9958;33.196;-97.114;2023-07-29T07:46:11;29.20;84.00
19622;DHT22;9958;33.196;-97.114;2023-07-29T07:48:39;29.20;84.30
19622;DHT22;9958;33.196;-97.114;2023-07-29T07:51:11;29.20;84.80
19622;DHT22;9958;33.196;-97.114;2023-07-29T07:53:39;29.10;85.10
19622;DHT22;9958;33.196;-97.114;2023-07-29T07:56:10;29.10;85.80
19622;DHT22;9958;33.196;-97.114;2023-07-29T07:58:38;29.10;86.10
19622;DHT22;9958;33.196;-97.114;2023-07-29T08:01:08;29.10;86.20
19622;DHT22;9958;33.196;-97.114;2023-07-29T08:03:37;29.10;86.30
19622;DHT22;9958;33.196;-97.114;2023-07-29T08:06:06;29.00;86.60
19622;DHT22;9958;33.196;-97.114;2023-07-29T08:08:34;29.00;86.90
19622;DHT22;9958;33.196;-97.114;2023-07-29T08:11:02;29.00;87.50
19622;DHT22;9958;33.196;-97.114;2023-07-29T08:13:32;28.90;88.00
19622;DHT22;9958;33.196;-97.114;2023-07-29T08:16:01;28.90;88.50
19622;DHT22;9958;33.196;-97.114;2023-07-29T08:18:29;28.90;89.00
19622;DHT22;9958;33.196;-97.114;2023-07-29T08:20:58;28.90;89.40
19622;DHT22;9958;33.196;-97.114;2023-07-29T08:23:29;28.80;89.80
19622;DHT22;9958;33.196;-97.114;2023-07-29T08:26:00;28.80;90.00
19622;DHT22;9958;33.196;-97.114;2023-07-29T08:28:32;28.70;90.00
19622;DHT22;9958;33.196;-97.114;2023-07-29T08:31:01;28.70;90.30
19622;DHT22;9958;33.196;-97.114;2023-07-29T08:33:29;28.70;90.60
19622;DHT22;9958;33.196;-97.114;2023-07-29T08:35:59;28.60;90.80
19622;DHT22;9958;33.196;-97.114;2023-07-29T08:38:27;28.60;90.90
19622;DHT22;9958;33.196;-97.114;2023-07-29T08:41:03;28.60;91.00
19622;DHT22;9958;33.196;-97.114;2023-07-29T08:43:35;28.50;91.30
19622;DHT22;9958;33.196;-97.114;2023-07-29T08:46:05;28.50;91.50
19622;DHT22;9958;33.196;-97.114;2023-07-29T08:48:40;28.40;91.50
19622;DHT22;9958;33.196;-97.114;2023-07-29T08:51:11;28.40;91.60
19622;DHT22;9958;33.196;-97.114;2023-07-29T08:53:40;28.40;92.10
19622;DHT22;9958;33.196;-97.114;2023-07-29T08:56:08;28.30;92.40
19622;DHT22;9958;33.196;-97.114;2023-07-29T08:58:39;28.20;92.50
19622;DHT22;9958;33.196;-97.114;2023-07-29T09:01:07;28.20;92.60
19622;DHT22;9958;33.196;-97.114;2023-07-29T09:03:36;28.20;92.80
19622;DHT22;9958;33.196;-97.114;2023-07-29T09:06:04;28.10;93.00
19622;DHT22;9958;33.196;-97.114;2023-07-29T09:08:34;28.10;93.20
19622;DHT22;9958;33.196;-97.114;2023-07-29T09:11:02;28.00;93.20
19622;DHT22;9958;33.196;-97.114;2023-07-29T09:13:31;28.10;93.10
19622;DHT22;9958;33.196;-97.114;2023-07-29T09:16:01;28.00;93.50
19622;DHT22;9958;33.196;-97.114;2023-07-29T09:18:29;28.00;93.80
19622;DHT22;9958;33.196;-97.114;2023-07-29T09:20:59;27.90;93.80
19622;DHT22;9958;33.196;-97.114;2023-07-29T09:23:28;27.90;93.90
19622;DHT22;9958;33.196;-97.114;2023-07-29T09:26:04;27.90;93.90
19622;DHT22;9958;33.196;-97.114;2023-07-29T09:28:34;27.90;94.00
19622;DHT22;9958;33.196;-97.114;2023-07-29T09:31:04;27.90;93.90
19622;DHT22;9958;33.196;-97.114;2023-07-29T09:33:34;27.90;93.90
19622;DHT22;9958;33.196;-97.114;2023-07-29T09:36:08;27.80;93.80
19622;DHT22;9958;33.196;-97.114;2023-07-29T09:38:39;27.80;93.40
19622;DHT22;9958;33.196;-97.114;2023-07-29T09:41:07;27.80;93.40
19622;DHT22;9958;33.196;-97.114;2023-07-29T09:43:36;27.80;93.00
19622;DHT22;9958;33.196;-97.114;2023-07-29T09:46:06;27.80;92.10
19622;DHT22;9958;33.196;-97.114;2023-07-29T09:48:35;27.80;91.30
19622;DHT22;9958;33.196;-97.114;2023-07-29T09:51:10;27.80;90.60
19622;DHT22;9958;33.196;-97.114;2023-07-29T09:53:43;27.80;90.60
19622;DHT22;9958;33.196;-97.114;2023-07-29T09:56:12;27.90;90.10
19622;DHT22;9958;33.196;-97.114;2023-07-29T09:58:43;27.80;89.00
19622;DHT22;9958;33.196;-97.114;2023-07-29T10:01:13;27.90;88.30
19622;DHT22;9958;33.196;-97.114;2023-07-29T10:03:43;27.90;87.50
19622;DHT22;9958;33.196;-97.114;2023-07-29T10:06:12;27.90;87.50
19622;DHT22;9958;33.196;-97.114;2023-07-29T10:08:43;27.80;87.80
19622;DHT22;9958;33.196;-97.114;2023-07-29T10:11:12;27.90;87.90
19622;DHT22;9958;33.196;-97.114;2023-07-29T10:13:40;27.90;88.00
19622;DHT22;9958;33.196;-97.114;2023-07-29T10:16:09;27.90;88.10
19622;DHT22;9958;33.196;-97.114;2023-07-29T10:18:41;27.90;88.30
19622;DHT22;9958;33.196;-97.114;2023-07-29T10:21:11;27.80;88.20
19622;DHT22;9958;33.196;-97.114;2023-07-29T10:23:45;27.80;88.00
19622;DHT22;9958;33.196;-97.114;2023-07-29T10:26:17;27.80;88.70
19622;DHT22;9958;33.196;-97.114;2023-07-29T10:28:48;27.70;88.90
19622;DHT22;9958;33.196;-97.114;2023-07-29T10:31:19;27.70;88.90
19622;DHT22;9958;33.196;-97.114;2023-07-29T10:33:50;27.70;89.00
19622;DHT22;9958;33.196;-97.114;2023-07-29T10:36:19;27.70;89.20
19622;DHT22;9958;33.196;-97.114;2023-07-29T10:38:48;27.60;89.20
19622;DHT22;9958;33.196;-97.114;2023-07-29T10:41:17;27.60;89.70
19622;DHT22;9958;33.196;-97.114;2023-07-29T10:43:45;27.60;89.60
19622;DHT22;9958;33.196;-97.114;2023-07-29T10:46:17;27.60;89.60
19622;DHT22;9958;33.196;-97.114;2023-07-29T10:48:54;27.50;90.30
19622;DHT22;9958;33.196;-97.114;2023-07-29T10:51:29;27.50;90.10
19622;DHT22;9958;33.196;-97.114;2023-07-29T10:54:00;27.50;90.10
19622;DHT22;9958;33.196;-97.114;2023-07-29T10:56:29;27.40;90.10
19622;DHT22;9958;33.196;-97.114;2023-07-29T10:59:02;27.40;90.30
19622;DHT22;9958;33.196;-97.114;2023-07-29T11:01:31;27.30;90.40
19622;DHT22;9958;33.196;-97.114;2023-07-29T11:04:26;27.30;90.40
19622;DHT22;9958;33.196;-97.114;2023-07-29T11:07:23;27.30;90.40
19622;DHT22;9958;33.196;-97.114;2023-07-29T11:10:00;27.20;90.50
19622;DHT22;9958;33.196;-97.114;2023-07-29T11:12:40;27.10;90.60
19622;DHT22;9958;33.196;-97.114;2023-07-29T11:15:17;27.10;90.60
19622;DHT22;9958;33.196;-97.114;2023-07-29T11:17:47;27.10;90.80
19622;DHT22;9958;33.196;-97.114;2023-07-29T11:20:18;27.00;90.70
19622;DHT22;9958;33.196;-97.114;2023-07-29T11:22:46;27.00;90.70
19622;DHT22;9958;33.196;-97.114;2023-07-29T11:25:16;27.00;90.90
19622;DHT22;9958;33.196;-97.114;2023-07-29T11:27:45;26.90;91.00
19622;DHT22;9958;33.196;-97.114;2023-07-29T11:30:15;26.90;91.30
19622;DHT22;9958;33.196;-97.114;2023-07-29T11:32:44;26.90;91.20
19622;DHT22;9958;33.196;-97.114;2023-07-29T11:35:16;26.80;91.30
19622;DHT22;9958;33.196;-97.114;2023-07-29T11:37:46;26.80;91.30
19622;DHT22;9958;33.196;-97.114;2023-07-29T11:40:16;26.80;91.50
19622;DHT22;9958;33.196;-97.114;2023-07-29T11:42:45;26.80;91.40
19622;DHT22;9958;33.196;-97.114;2023-07-29T11:45:14;26.70;91.20
19622;DHT22;9958;33.196;-97.114;2023-07-29T11:47:43;26.70;90.90
19622;DHT22;9958;33.196;-97.114;2023-07-29T11:50:12;26.70;90.90
19622;DHT22;9958;33.196;-97.114;2023-07-29T11:52:44;26.70;91.10
19622;DHT22;9958;33.196;-97.114;2023-07-29T11:55:14;26.70;91.40
19622;DHT22;9958;33.196;-97.114;2023-07-29T11:57:43;26.70;91.60
19622;DHT22;9958;33.196;-97.114;2023-07-29T12:00:12;26.70;91.60
19622;DHT22;9958;33.196;-97.114;2023-07-29T12:02:42;26.70;91.60
19622;DHT22;9958;33.196;-97.114;2023-07-29T12:05:12;26.70;91.70
19622;DHT22;9958;33.196;-97.114;2023-07-29T12:07:43;26.70;91.60
19622;DHT22;9958;33.196;-97.114;2023-07-29T12:10:12;26.70;91.40
19622;DHT22;9958;33.196;-97.114;2023-07-29T12:12:50;26.80;91.60
19622;DHT22;9958;33.196;-97.114;2023-07-29T12:15:25;26.80;92.00
19622;DHT22;9958;33.196;-97.114;2023-07-29T12:17:55;26.90;91.70
19622;DHT22;9958;33.196;-97.114;2023-07-29T12:20:26;27.00;91.60
19622;DHT22;9958;33.196;-97.114;2023-07-29T12:22:57;27.00;91.40
19622;DHT22;9958;33.196;-97.114;2023-07-29T12:25:28;27.20;91.50
19622;DHT22;9958;33.196;-97.114;2023-07-29T12:27:57;27.30;91.60
19622;DHT22;9958;33.196;-97.114;2023-07-29T12:30:29;27.40;91.10
19622;DHT22;9958;33.196;-97.114;2023-07-29T12:32:58;27.60;91.00
19622;DHT22;9958;33.196;-97.114;2023-07-29T12:35:36;28.00;90.60
19622;DHT22;9958;33.196;-97.114;2023-07-29T12:38:07;28.80;89.40
19622;DHT22;9958;33.196;-97.114;2023-07-29T12:40:38;29.70;85.70
19622;DHT22;9958;33.196;-97.114;2023-07-29T12:43:08;30.90;82.00
19622;DHT22;9958;33.196;-97.114;2023-07-29T12:45:37;32.00;78.50
19622;DHT22;9958;33.196;-97.114;2023-07-29T12:48:06;33.10;74.50
19622;DHT22;9958;33.196;-97.114;2023-07-29T12:50:34;34.20;70.70
19622;DHT22;9958;33.196;-97.114;2023-07-29T12:53:04;35.20;67.50
19622;DHT22;9958;33.196;-97.114;2023-07-29T12:55:34;36.20;64.60
19622;DHT22;9958;33.196;-97.114;2023-07-29T12:58:02;37.20;62.00
19622;DHT22;9958;33.196;-97.114;2023-07-29T13:00:30;38.00;59.60
19622;DHT22;9958;33.196;-97.114;2023-07-29T13:02:59;38.80;58.20
19622;DHT22;9958;33.196;-97.114;2023-07-29T13:05:27;39.50;56.20
19622;DHT22;9958;33.196;-97.114;2023-07-29T13:07:55;40.20;55.10
19622;DHT22;9958;33.196;-97.114;2023-07-29T13:10:23;40.80;53.70
19622;DHT22;9958;33.196;-97.114;2023-07-29T13:12:53;41.30;52.00
19622;DHT22;9958;33.196;-97.114;2023-07-29T13:15:22;41.70;50.80
19622;DHT22;9958;33.196;-97.114;2023-07-29T13:17:50;41.80;50.40
19622;DHT22;9958;33.196;-97.114;2023-07-29T13:20:18;41.60;50.10
19622;DHT22;9958;33.196;-97.114;2023-07-29T13:22:47;41.30;50.30
19622;DHT22;9958;33.196;-97.114;2023-07-29T13:25:15;40.80;50.70
19622;DHT22;9958;33.196;-97.114;2023-07-29T13:27:43;40.30;51.70
19622;DHT22;9958;33.196;-97.114;2023-07-29T13:30:13;39.80;52.10
19622;DHT22;9958;33.196;-97.114;2023-07-29T13:32:41;39.20;53.00
19622;DHT22;9958;33.196;-97.114;2023-07-29T13:35:10;38.60;54.10
19622;DHT22;9958;33.196;-97.114;2023-07-29T13:37:38;38.00;55.00
19622;DHT22;9958;33.196;-97.114;2023-07-29T13:40:07;37.50;55.40
19622;DHT22;9958;33.196;-97.114;2023-07-29T13:42:36;37.10;56.20
19622;DHT22;9958;33.196;-97.114;2023-07-29T13:45:05;36.70;57.10
19622;DHT22;9958;33.196;-97.114;2023-07-29T13:47:35;36.40;57.70
19622;DHT22;9958;33.196;-97.114;2023-07-29T13:50:04;36.10;58.40
19622;DHT22;9958;33.196;-97.114;2023-07-29T13:52:34;35.90;58.70
19622;DHT22;9958;33.196;-97.114;2023-07-29T13:55:02;35.70;59.00
19622;DHT22;9958;33.196;-97.114;2023-07-29T13:57:31;35.50;59.20
19622;DHT22;9958;33.196;-97.114;2023-07-29T13:59:59;35.40;59.50
19622;DHT22;9958;33.196;-97.114;2023-07-29T14:02:27;35.30;59.10
19622;DHT22;9958;33.196;-97.114;2023-07-29T14:04:59;35.20;59.30
19622;DHT22;9958;33.196;-97.114;2023-07-29T14:07:27;35.20;59.20
19622;DHT22;9958;33.196;-97.114;2023-07-29T14:09:55;35.10;59.60
19622;DHT22;9958;33.196;-97.114;2023-07-29T14:12:23;35.10;59.80
19622;DHT22;9958;33.196;-97.114;2023-07-29T14:14:52;35.10;59.90
19622;DHT22;9958;33.196;-97.114;2023-07-29T14:17:20;35.00;59.00
19622;DHT22;9958;33.196;-97.114;2023-07-29T14:19:48;35.10;59.30
19622;DHT22;9958;33.196;-97.114;2023-07-29T14:22:18;35.10;59.80
19622;DHT22;9958;33.196;-97.114;2023-07-29T14:24:46;35.10;60.00
19622;DHT22;9958;33.196;-97.114;2023-07-29T14:27:15;35.20;58.90
19622;DHT22;9958;33.196;-97.114;2023-07-29T14:29:44;35.20;58.70
19622;DHT22;9958;33.196;-97.114;2023-07-29T14:32:12;35.30;59.20
19622;DHT22;9958;33.196;-97.114;2023-07-29T14:34:40;35.40;58.70
19622;DHT22;9958;33.196;-97.114;2023-07-29T14:37:09;35.50;58.40
19622;DHT22;9958;33.196;-97.114;2023-07-29T14:39:38;35.60;58.10
19622;DHT22;9958;33.196;-97.114;2023-07-29T14:42:07;35.70;58.00
19622;DHT22;9958;33.196;-97.114;2023-07-29T14:44:35;35.80;57.30
19622;DHT22;9958;33.196;-97.114;2023-07-29T14:47:04;35.90;57.40
19622;DHT22;9958;33.196;-97.114;2023-07-29T14:49:32;36.00;57.20
19622;DHT22;9958;33.196;-97.114;2023-07-29T14:52:01;36.10;56.70
19622;DHT22;9958;33.196;-97.114;2023-07-29T14:54:29;36.20;56.90
19622;DHT22;9958;33.196;-97.114;2023-07-29T14:56:59;36.30;57.00
19622;DHT22;9958;33.196;-97.114;2023-07-29T14:59:27;36.40;56.20
19622;DHT22;9958;33.196;-97.114;2023-07-29T15:01:56;36.50;56.30
19622;DHT22;9958;33.196;-97.114;2023-07-29T15:04:25;36.50;55.90
19622;DHT22;9958;33.196;-97.114;2023-07-29T15:06:53;36.70;56.90
19622;DHT22;9958;33.196;-97.114;2023-07-29T15:09:21;36.70;56.00
19622;DHT22;9958;33.196;-97.114;2023-07-29T15:11:50;36.90;55.50
19622;DHT22;9958;33.196;-97.114;2023-07-29T15:14:19;37.00;55.30
19622;DHT22;9958;33.196;-97.114;2023-07-29T15:16:48;37.10;55.20
19622;DHT22;9958;33.196;-97.114;2023-07-29T15:19:16;37.30;55.00
19622;DHT22;9958;33.196;-97.114;2023-07-29T15:21:44;37.40;54.30
19622;DHT22;9958;33.196;-97.114;2023-07-29T15:24:13;37.50;53.70
19622;DHT22;9958;33.196;-97.114;2023-07-29T15:26:41;37.50;53.40
19622;DHT22;9958;33.196;-97.114;2023-07-29T15:29:10;37.60;53.50